Estación Meteorológica Peña el Pijo (Robertgarden) [ 09/24/17 17:54:12 CEST ]

Fecha Hora Presion(HPa) Temp (°C) Humedad % Rocio (°C) Viento ( m/s) Direccion Lluvia 1Hora(mm) Lluvia 24H(mm) LLuvia Total(mm)
2017-Aug-15 01:01:32 1013.400 17.6 61 10.0         1437.96
2017-Aug-15 02:01:45 1013.100 16.3 65 9.7         1437.96
2017-Aug-15 03:01:44 1013.400 15.5 67 9.4         1437.96
2017-Aug-15 04:01:46 1013.000 15.4 69 9.8         1437.96
2017-Aug-15 05:01:53 1012.600 15.5 72 10.5         1437.96
2017-Aug-15 06:01:34 1012.300 15.5 75 11.1         1437.96
2017-Aug-15 07:02:01 1012.400 15.0 77 11.0         1437.96
2017-Aug-15 08:01:52 1012.700 15.3 78 11.5         1437.96
2017-Aug-15 09:01:49 1013.000 17.2 77 13.1         1437.96
2017-Aug-15 10:01:44 1013.500 21.9 68 15.7         1437.96
2017-Aug-15 11:01:45 1013.500 30.1 41 15.4         1437.96
2017-Aug-15 12:01:44 1013.600 31.9 34 14.0         1437.96
2017-Aug-15 13:01:52 1013.400 35.4 29 14.6         1437.96
2017-Aug-15 14:01:55 1012.700 36.3 25 12.9         1437.96
2017-Aug-15 15:01:51 1012.100 35.6 25 12.3         1437.96
2017-Aug-15 16:01:42 1012.900 26.5 51 15.5         1437.96
2017-Aug-15 17:01:47 1012.700 21.4 67 15.0         1437.96
2017-Aug-15 18:01:46 1012.500 20.4 74 15.6     0.51 0.51 1438.48
2017-Aug-15 19:01:53 1012.400 23.8 68 17.5       1.03 1439.00
2017-Aug-15 20:01:53 1012.800 23.3 70 17.6       1.03 1439.00
2017-Aug-15 21:01:52 1012.900 22.8 67 16.3       1.03 1439.00
2017-Aug-15 22:01:52 1013.400 21.6 67 15.2       1.03 1439.00
2017-Aug-15 23:01:48 1014.100 19.8 72 14.6       1.03 1439.00

Temperatura Máxima:36°    Temperatura Mínima:15°
Presión Máxima:1014.100 Hpa    Presión Mínima:1012.100 Hpa


Volver